sensor_id;sensor_type;location;lat;lon;timestamp;pressure;altitude;pressure_sealevel;temperature;humidity
8641;BME280;4358;42.100;25.222;2023-03-01T00:01:19;100904.22;;;8.12;100.00
8641;BME280;4358;42.100;25.222;2023-03-01T00:03:47;100896.41;;;8.08;100.00
8641;BME280;4358;42.100;25.222;2023-03-01T00:06:14;100908.53;;;8.14;100.00
8641;BME280;4358;42.100;25.222;2023-03-01T00:08:41;100896.13;;;8.16;100.00
8641;BME280;4358;42.100;25.222;2023-03-01T00:11:11;100906.31;;;8.25;100.00
8641;BME280;4358;42.100;25.222;2023-03-01T00:13:39;100906.16;;;8.28;100.00
8641;BME280;4358;42.100;25.222;2023-03-01T00:16:09;100905.22;;;8.31;100.00
8641;BME280;4358;42.100;25.222;2023-03-01T00:18:36;100916.53;;;8.34;100.00
8641;BME280;4358;42.100;25.222;2023-03-01T00:21:03;100916.66;;;8.31;100.00
8641;BME280;4358;42.100;25.222;2023-03-01T00:23:30;100911.25;;;8.34;100.00
8641;BME280;4358;42.100;25.222;2023-03-01T00:25:57;100903.16;;;8.37;100.00
8641;BME280;4358;42.100;25.222;2023-03-01T00:28:24;100902.13;;;8.41;100.00
8641;BME280;4358;42.100;25.222;2023-03-01T00:30:51;100901.06;;;8.45;100.00
8641;BME280;4358;42.100;25.222;2023-03-01T00:33:19;100899.41;;;8.43;100.00
8641;BME280;4358;42.100;25.222;2023-03-01T00:35:46;100901.13;;;8.44;100.00
8641;BME280;4358;42.100;25.222;2023-03-01T00:38:13;100901.88;;;8.26;100.00
8641;BME280;4358;42.100;25.222;2023-03-01T00:40:40;100900.88;;;8.28;100.00
8641;BME280;4358;42.100;25.222;2023-03-01T00:43:06;100897.28;;;8.31;100.00
8641;BME280;4358;42.100;25.222;2023-03-01T00:45:33;100898.25;;;8.28;100.00
8641;BME280;4358;42.100;25.222;2023-03-01T00:48:00;100887.03;;;8.22;100.00
8641;BME280;4358;42.100;25.222;2023-03-01T00:50:28;100882.47;;;8.05;100.00
8641;BME280;4358;42.100;25.222;2023-03-01T00:52:55;100881.47;;;8.07;100.00
8641;BME280;4358;42.100;25.222;2023-03-01T00:55:23;100878.72;;;8.11;100.00
8641;BME280;4358;42.100;25.222;2023-03-01T00:57:50;100883.94;;;8.12;100.00
8641;BME280;4358;42.100;25.222;2023-03-01T01:00:19;100879.31;;;8.17;100.00
8641;BME280;4358;42.100;25.222;2023-03-01T01:02:46;100880.75;;;8.04;100.00
8641;BME280;4358;42.100;25.222;2023-03-01T01:05:13;100872.44;;;8.13;100.00
8641;BME280;4358;42.100;25.222;2023-03-01T01:07:41;100868.06;;;8.12;100.00
8641;BME280;4358;42.100;25.222;2023-03-01T01:10:09;100874.31;;;8.11;100.00
8641;BME280;4358;42.100;25.222;2023-03-01T01:12:38;100866.22;;;8.14;100.00
8641;BME280;4358;42.100;25.222;2023-03-01T01:15:05;100868.69;;;8.19;100.00
8641;BME280;4358;42.100;25.222;2023-03-01T01:17:32;100866.94;;;8.18;100.00
8641;BME280;4358;42.100;25.222;2023-03-01T01:19:59;100860.06;;;8.14;100.00
8641;BME280;4358;42.100;25.222;2023-03-01T01:22:26;100858.03;;;8.20;100.00
8641;BME280;4358;42.100;25.222;2023-03-01T01:24:54;100843.97;;;8.20;100.00
8641;BME280;4358;42.100;25.222;2023-03-01T01:27:21;100843.09;;;8.19;100.00
8641;BME280;4358;42.100;25.222;2023-03-01T01:29:48;100843.09;;;8.19;100.00
8641;BME280;4358;42.100;25.222;2023-03-01T01:32:14;100856.38;;;8.18;100.00
8641;BME280;4358;42.100;25.222;2023-03-01T01:34:41;100850.81;;;8.24;100.00
8641;BME280;4358;42.100;25.222;2023-03-01T01:37:08;100860.78;;;8.17;100.00
8641;BME280;4358;42.100;25.222;2023-03-01T01:39:35;100857.97;;;8.22;100.00
8641;BME280;4358;42.100;25.222;2023-03-01T01:42:03;100860.44;;;8.26;100.00
8641;BME280;4358;42.100;25.222;2023-03-01T01:44:30;100854.88;;;8.32;100.00
8641;BME280;4358;42.100;25.222;2023-03-01T01:46:58;100857.41;;;8.35;100.00
8641;BME280;4358;42.100;25.222;2023-03-01T01:49:32;100860.94;;;8.36;100.00
8641;BME280;4358;42.100;25.222;2023-03-01T01:52:04;100863.50;;;8.37;100.00
8641;BME280;4358;42.100;25.222;2023-03-01T01:54:39;100854.38;;;8.44;100.00
8641;BME280;4358;42.100;25.222;2023-03-01T01:57:11;100851.00;;;8.41;100.00
8641;BME280;4358;42.100;25.222;2023-03-01T01:59:41;100860.59;;;8.43;100.00
8641;BME280;4358;42.100;25.222;2023-03-01T02:02:09;100860.53;;;8.45;100.00
8641;BME280;4358;42.100;25.222;2023-03-01T02:04:36;100854.16;;;8.49;100.00
8641;BME280;4358;42.100;25.222;2023-03-01T02:07:07;100855.97;;;8.48;100.00
8641;BME280;4358;42.100;25.222;2023-03-01T02:09:37;100853.31;;;8.48;100.00
8641;BME280;4358;42.100;25.222;2023-03-01T02:12:04;100853.31;;;8.48;100.00
8641;BME280;4358;42.100;25.222;2023-03-01T02:14:33;100851.22;;;8.36;100.00
8641;BME280;4358;42.100;25.222;2023-03-01T02:17:00;100846.78;;;8.37;100.00
8641;BME280;4358;42.100;25.222;2023-03-01T02:19:38;100851.41;;;8.32;100.00
8641;BME280;4358;42.100;25.222;2023-03-01T02:22:15;100852.25;;;8.32;100.00
8641;BME280;4358;42.100;25.222;2023-03-01T02:24:52;100848.56;;;8.36;100.00
8641;BME280;4358;42.100;25.222;2023-03-01T02:27:26;100855.91;;;8.30;100.00
8641;BME280;4358;42.100;25.222;2023-03-01T02:29:57;100843.25;;;8.16;100.00
8641;BME280;4358;42.100;25.222;2023-03-01T02:32:24;100834.91;;;8.25;100.00
8641;BME280;4358;42.100;25.222;2023-03-01T02:34:51;100840.03;;;8.08;100.00
8641;BME280;4358;42.100;25.222;2023-03-01T02:37:19;100832.75;;;7.93;100.00
8641;BME280;4358;42.100;25.222;2023-03-01T02:39:55;100824.88;;;7.91;100.00
8641;BME280;4358;42.100;25.222;2023-03-01T02:42:28;100831.47;;;7.81;100.00
8641;BME280;4358;42.100;25.222;2023-03-01T02:44:58;100828.19;;;7.75;100.00
8641;BME280;4358;42.100;25.222;2023-03-01T02:47:25;100837.13;;;7.72;100.00
8641;BME280;4358;42.100;25.222;2023-03-01T02:49:51;100832.81;;;7.70;100.00
8641;BME280;4358;42.100;25.222;2023-03-01T02:52:34;100838.00;;;7.73;100.00
8641;BME280;4358;42.100;25.222;2023-03-01T02:55:09;100841.66;;;7.90;100.00
8641;BME280;4358;42.100;25.222;2023-03-01T02:57:39;100843.84;;;8.01;100.00
8641;BME280;4358;42.100;25.222;2023-03-01T03:00:11;100841.03;;;8.05;100.00
8641;BME280;4358;42.100;25.222;2023-03-01T03:02:45;100831.28;;;8.06;100.00
8641;BME280;4358;42.100;25.222;2023-03-01T03:05:13;100838.19;;;8.10;100.00
8641;BME280;4358;42.100;25.222;2023-03-01T03:07:41;100833.56;;;8.15;100.00
8641;BME280;4358;42.100;25.222;2023-03-01T03:10:12;100837.38;;;8.08;100.00
8641;BME280;4358;42.100;25.222;2023-03-01T03:12:39;100832.31;;;8.03;100.00
8641;BME280;4358;42.100;25.222;2023-03-01T03:15:09;100831.81;;;7.94;100.00
8641;BME280;4358;42.100;25.222;2023-03-01T03:17:39;100820.78;;;7.84;100.00
8641;BME280;4358;42.100;25.222;2023-03-01T03:20:07;100824.19;;;7.86;100.00
8641;BME280;4358;42.100;25.222;2023-03-01T03:22:37;100813.53;;;7.89;100.00
8641;BME280;4358;42.100;25.222;2023-03-01T03:25:05;100826.53;;;7.94;100.00
8641;BME280;4358;42.100;25.222;2023-03-01T03:27:36;100823.56;;;8.01;100.00
8641;BME280;4358;42.100;25.222;2023-03-01T03:30:04;100821.06;;;7.98;100.00
8641;BME280;4358;42.100;25.222;2023-03-01T03:32:35;100832.25;;;8.05;100.00
8641;BME280;4358;42.100;25.222;2023-03-01T03:35:03;100831.19;;;8.09;100.00
8641;BME280;4358;42.100;25.222;2023-03-01T03:37:35;100831.19;;;8.09;100.00
8641;BME280;4358;42.100;25.222;2023-03-01T03:40:19;100831.25;;;8.07;100.00
8641;BME280;4358;42.100;25.222;2023-03-01T03:42:46;100834.75;;;8.08;100.00
8641;BME280;4358;42.100;25.222;2023-03-01T03:45:30;100829.34;;;8.11;100.00
8641;BME280;4358;42.100;25.222;2023-03-01T03:48:00;100833.69;;;8.12;100.00
8641;BME280;4358;42.100;25.222;2023-03-01T03:50:26;100831.91;;;8.13;100.00
8641;BME280;4358;42.100;25.222;2023-03-01T03:52:53;100836.03;;;8.20;100.00
8641;BME280;4358;42.100;25.222;2023-03-01T03:55:20;100829.66;;;8.24;100.00
8641;BME280;4358;42.100;25.222;2023-03-01T03:58:06;100824.53;;;8.21;100.00
8641;BME280;4358;42.100;25.222;2023-03-01T04:00:35;100822.44;;;8.07;100.00
8641;BME280;4358;42.100;25.222;2023-03-01T04:03:05;100817.31;;;8.04;100.00
8641;BME280;4358;42.100;25.222;2023-03-01T04:05:32;100805.50;;;7.91;100.00
8641;BME280;4358;42.100;25.222;2023-03-01T04:07:59;100810.69;;;7.94;100.00
8641;BME280;4358;42.100;25.222;2023-03-01T04:10:30;100812.91;;;7.83;100.00
8641;BME280;4358;42.100;25.222;2023-03-01T04:12:58;100814.31;;;7.91;100.00
8641;BME280;4358;42.100;25.222;2023-03-01T04:15:26;100810.97;;;7.86;100.00
8641;BME280;4358;42.100;25.222;2023-03-01T04:17:53;100815.03;;;7.53;100.00
8641;BME280;4358;42.100;25.222;2023-03-01T04:20:25;100810.34;;;7.38;100.00
8641;BME280;4358;42.100;25.222;2023-03-01T04:22:56;100814.16;;;7.52;100.00
8641;BME280;4358;42.100;25.222;2023-03-01T04:25:24;100819.06;;;7.61;100.00
8641;BME280;4358;42.100;25.222;2023-03-01T04:27:51;100806.38;;;7.70;100.00
8641;BME280;4358;42.100;25.222;2023-03-01T04:30:18;100814.75;;;7.81;100.00
8641;BME280;4358;42.100;25.222;2023-03-01T04:32:44;100820.63;;;7.87;100.00
8641;BME280;4358;42.100;25.222;2023-03-01T04:35:11;100816.84;;;7.94;100.00
8641;BME280;4358;42.100;25.222;2023-03-01T04:37:39;100819.38;;;7.96;100.00
8641;BME280;4358;42.100;25.222;2023-03-01T04:40:08;100816.22;;;7.88;100.00
8641;BME280;4358;42.100;25.222;2023-03-01T04:42:42;100816.94;;;7.91;100.00
8641;BME280;4358;42.100;25.222;2023-03-01T04:45:09;100819.78;;;7.87;100.00
8641;BME280;4358;42.100;25.222;2023-03-01T04:47:39;100831.34;;;7.84;100.00
8641;BME280;4358;42.100;25.222;2023-03-01T04:50:07;100819.78;;;7.87;100.00
8641;BME280;4358;42.100;25.222;2023-03-01T04:52:34;100822.22;;;7.91;100.00
8641;BME280;4358;42.100;25.222;2023-03-01T04:55:03;100823.66;;;8.00;100.00
8641;BME280;4358;42.100;25.222;2023-03-01T04:57:31;100821.53;;;8.08;100.00
8641;BME280;4358;42.100;25.222;2023-03-01T04:59:58;100818.78;;;8.11;100.00
8641;BME280;4358;42.100;25.222;2023-03-01T05:02:25;100822.84;;;8.18;100.00
8641;BME280;4358;42.100;25.222;2023-03-01T05:04:51;100825.38;;;8.21;100.00
8641;BME280;4358;42.100;25.222;2023-03-01T05:07:23;100823.78;;;8.17;100.00
8641;BME280;4358;42.100;25.222;2023-03-01T05:09:52;100824.53;;;8.21;100.00
8641;BME280;4358;42.100;25.222;2023-03-01T05:12:21;100825.44;;;8.20;100.00
8641;BME280;4358;42.100;25.222;2023-03-01T05:14:47;100822.75;;;8.21;100.00
8641;BME280;4358;42.100;25.222;2023-03-01T05:17:16;100832.53;;;8.19;100.00
8641;BME280;4358;42.100;25.222;2023-03-01T05:19:43;100825.38;;;8.21;100.00
8641;BME280;4358;42.100;25.222;2023-03-01T05:22:10;100834.00;;;8.26;100.00
8641;BME280;4358;42.100;25.222;2023-03-01T05:24:36;100828.59;;;8.28;100.00
8641;BME280;4358;42.100;25.222;2023-03-01T05:27:04;100826.97;;;8.25;100.00
8641;BME280;4358;42.100;25.222;2023-03-01T05:29:33;100821.69;;;8.25;100.00
8641;BME280;4358;42.100;25.222;2023-03-01T05:32:01;100819.97;;;8.24;100.00
8641;BME280;4358;42.100;25.222;2023-03-01T05:34:30;100828.94;;;8.20;100.00
8641;BME280;4358;42.100;25.222;2023-03-01T05:36:57;100830.53;;;8.24;100.00
8641;BME280;4358;42.100;25.222;2023-03-01T05:39:25;100831.25;;;8.28;100.00
8641;BME280;4358;42.100;25.222;2023-03-01T05:41:53;100828.56;;;8.29;100.00
8641;BME280;4358;42.100;25.222;2023-03-01T05:44:20;100835.47;;;8.33;100.00
8641;BME280;4358;42.100;25.222;2023-03-01T05:46:48;100832.81;;;8.33;100.00
8641;BME280;4358;42.100;25.222;2023-03-01T05:49:15;100826.75;;;8.31;100.00
8641;BME280;4358;42.100;25.222;2023-03-01T05:51:47;100832.97;;;8.29;100.00
8641;BME280;4358;42.100;25.222;2023-03-01T05:54:14;100832.66;;;8.16;100.00
8641;BME280;4358;42.100;25.222;2023-03-01T05:56:41;100839.63;;;8.17;100.00
8641;BME280;4358;42.100;25.222;2023-03-01T05:59:08;100843.97;;;8.20;100.00
8641;BME280;4358;42.100;25.222;2023-03-01T06:01:36;100831.59;;;8.20;100.00
8641;BME280;4358;42.100;25.222;2023-03-01T06:04:04;100850.97;;;8.21;100.00
8641;BME280;4358;42.100;25.222;2023-03-01T06:06:33;100851.63;;;8.26;100.00
8641;BME280;4358;42.100;25.222;2023-03-01T06:09:03;100846.91;;;8.34;100.00
8641;BME280;4358;42.100;25.222;2023-03-01T06:11:30;100852.00;;;8.38;100.00
8641;BME280;4358;42.100;25.222;2023-03-01T06:13:56;100856.50;;;8.36;100.00
8641;BME280;4358;42.100;25.222;2023-03-01T06:16:23;100858.94;;;8.41;100.00
8641;BME280;4358;42.100;25.222;2023-03-01T06:18:50;100861.13;;;8.52;100.00
8641;BME280;4358;42.100;25.222;2023-03-01T06:21:18;100858.53;;;8.50;100.00
8641;BME280;4358;42.100;25.222;2023-03-01T06:23:45;100862.19;;;8.47;100.00
8641;BME280;4358;42.100;25.222;2023-03-01T06:26:12;100859.41;;;8.50;100.00
8641;BME280;4358;42.100;25.222;2023-03-01T06:28:38;100862.84;;;8.53;100.00
8641;BME280;4358;42.100;25.222;2023-03-01T06:31:05;100859.25;;;8.54;100.00
8641;BME280;4358;42.100;25.222;2023-03-01T06:33:34;100855.59;;;8.58;100.00
8641;BME280;4358;42.100;25.222;2023-03-01T06:36:01;100853.97;;;8.54;100.00
8641;BME280;4358;42.100;25.222;2023-03-01T06:38:29;100860.88;;;8.58;100.00
8641;BME280;4358;42.100;25.222;2023-03-01T06:40:56;100854.38;;;8.44;100.00
8641;BME280;4358;42.100;25.222;2023-03-01T06:43:23;100855.44;;;8.40;100.00
8641;BME280;4358;42.100;25.222;2023-03-01T06:45:50;100857.28;;;8.38;100.00
8641;BME280;4358;42.100;25.222;2023-03-01T06:48:17;100853.84;;;8.36;100.00
8641;BME280;4358;42.100;25.222;2023-03-01T06:50:44;100850.97;;;8.42;100.00
8641;BME280;4358;42.100;25.222;2023-03-01T06:53:10;100854.28;;;8.26;100.00
8641;BME280;4358;42.100;25.222;2023-03-01T06:55:39;100852.41;;;8.28;100.00
8641;BME280;4358;42.100;25.222;2023-03-01T06:58:05;100853.47;;;8.24;100.00
8641;BME280;4358;42.100;25.222;2023-03-01T07:00:32;100843.50;;;8.10;100.00
8641;BME280;4358;42.100;25.222;2023-03-01T07:03:00;100863.44;;;8.17;100.00
8641;BME280;4358;42.100;25.222;2023-03-01T07:05:28;100862.41;;;8.21;100.00
8641;BME280;4358;42.100;25.222;2023-03-01T07:07:55;100853.41;;;8.25;100.00
8641;BME280;4358;42.100;25.222;2023-03-01T07:10:22;100853.41;;;8.25;100.00
8641;BME280;4358;42.100;25.222;2023-03-01T07:12:50;100854.38;;;8.23;100.00
8641;BME280;4358;42.100;25.222;2023-03-01T07:15:20;100856.75;;;8.30;100.00
8641;BME280;4358;42.100;25.222;2023-03-01T07:17:47;100854.53;;;8.41;100.00
8641;BME280;4358;42.100;25.222;2023-03-01T07:20:16;100851.22;;;8.36;100.00
8641;BME280;4358;42.100;25.222;2023-03-01T07:22:43;100856.84;;;8.27;100.00
8641;BME280;4358;42.100;25.222;2023-03-01T07:25:10;100852.25;;;8.32;100.00
8641;BME280;4358;42.100;25.222;2023-03-01T07:27:37;100860.06;;;8.35;100.00
8641;BME280;4358;42.100;25.222;2023-03-01T07:30:07;100860.66;;;8.42;100.00
8641;BME280;4358;42.100;25.222;2023-03-01T07:32:34;100859.25;;;8.54;100.00
8641;BME280;4358;42.100;25.222;2023-03-01T07:35:01;100855.91;;;8.30;100.00
8641;BME280;4358;42.100;25.222;2023-03-01T07:37:28;100862.78;;;8.34;100.00
8641;BME280;4358;42.100;25.222;2023-03-01T07:39:55;100861.13;;;8.31;100.00
8641;BME280;4358;42.100;25.222;2023-03-01T07:42:23;100858.50;;;8.31;100.00
8641;BME280;4358;42.100;25.222;2023-03-01T07:44:49;100850.88;;;8.22;100.00
8641;BME280;4358;42.100;25.222;2023-03-01T07:47:18;100852.34;;;8.29;100.00
8641;BME280;4358;42.100;25.222;2023-03-01T07:49:44;100845.34;;;8.28;100.00
8641;BME280;4358;42.100;25.222;2023-03-01T07:52:12;100849.09;;;8.23;100.00
8641;BME280;4358;42.100;25.222;2023-03-01T07:54:38;100855.25;;;8.23;100.00
8641;BME280;4358;42.100;25.222;2023-03-01T07:57:05;100852.56;;;8.25;100.00
8641;BME280;4358;42.100;25.222;2023-03-01T07:59:32;100852.34;;;8.29;100.00
8641;BME280;4358;42.100;25.222;2023-03-01T08:01:59;100830.31;;;8.30;100.00
8641;BME280;4358;42.100;25.222;2023-03-01T08:04:27;100840.88;;;8.30;100.00
8641;BME280;4358;42.100;25.222;2023-03-01T08:06:54;100837.19;;;8.34;100.00
8641;BME280;4358;42.100;25.222;2023-03-01T08:09:21;100833.72;;;8.32;100.00
8641;BME280;4358;42.100;25.222;2023-03-01T08:11:48;100851.56;;;8.27;100.00
8641;BME280;4358;42.100;25.222;2023-03-01T08:14:16;100829.47;;;8.28;100.00
8641;BME280;4358;42.100;25.222;2023-03-01T08:16:43;100835.97;;;8.21;100.00
8641;BME280;4358;42.100;25.222;2023-03-01T08:19:11;100838.72;;;8.18;100.00
8641;BME280;4358;42.100;25.222;2023-03-01T08:21:39;100836.06;;;8.18;100.00
8641;BME280;4358;42.100;25.222;2023-03-01T08:24:07;100829.97;;;7.96;100.00
8641;BME280;4358;42.100;25.222;2023-03-01T08:26:35;100835.88;;;7.81;100.00
8641;BME280;4358;42.100;25.222;2023-03-01T08:29:03;100836.88;;;7.78;100.00
8641;BME280;4358;42.100;25.222;2023-03-01T08:31:33;100835.84;;;7.60;100.00
8641;BME280;4358;42.100;25.222;2023-03-01T08:34:02;100838.84;;;7.51;100.00
8641;BME280;4358;42.100;25.222;2023-03-01T08:36:31;100832.06;;;7.44;100.00
8641;BME280;4358;42.100;25.222;2023-03-01T08:39:00;100842.16;;;7.56;100.00
8641;BME280;4358;42.100;25.222;2023-03-01T08:41:27;100843.94;;;7.56;100.00
8641;BME280;4358;42.100;25.222;2023-03-01T08:43:54;100831.59;;;7.56;100.00
8641;BME280;4358;42.100;25.222;2023-03-01T08:46:24;100832.41;;;7.58;100.00
8641;BME280;4358;42.100;25.222;2023-03-01T08:48:52;100834.53;;;7.71;100.00
8641;BME280;4358;42.100;25.222;2023-03-01T08:51:19;100829.00;;;7.77;100.00
8641;BME280;4358;42.100;25.222;2023-03-01T08:53:47;100831.13;;;7.69;100.00
8641;BME280;4358;42.100;25.222;2023-03-01T08:56:17;100820.78;;;7.62;100.00
8641;BME280;4358;42.100;25.222;2023-03-01T08:58:45;100833.31;;;7.57;100.00
8641;BME280;4358;42.100;25.222;2023-03-01T09:01:14;100827.69;;;7.43;100.00
8641;BME280;4358;42.100;25.222;2023-03-01T09:03:42;100821.59;;;7.43;100.00
8641;BME280;4358;42.100;25.222;2023-03-01T09:06:09;100830.84;;;7.31;100.00
8641;BME280;4358;42.100;25.222;2023-03-01T09:08:38;100837.84;;;7.32;100.00
8641;BME280;4358;42.100;25.222;2023-03-01T09:11:06;100836.34;;;7.25;100.00
8641;BME280;4358;42.100;25.222;2023-03-01T09:13:35;100838.44;;;7.17;100.00
8641;BME280;4358;42.100;25.222;2023-03-01T09:16:04;100843.72;;;7.17;100.00
8641;BME280;4358;42.100;25.222;2023-03-01T09:18:31;100845.88;;;7.29;100.00
8641;BME280;4358;42.100;25.222;2023-03-01T09:21:02;100833.31;;;7.36;100.00
8641;BME280;4358;42.100;25.222;2023-03-01T09:23:33;100839.69;;;7.30;100.00
8641;BME280;4358;42.100;25.222;2023-03-01T09:26:01;100844.72;;;7.36;100.00
8641;BME280;4358;42.100;25.222;2023-03-01T09:28:28;100843.63;;;7.42;100.00
8641;BME280;4358;42.100;25.222;2023-03-01T09:30:59;100843.41;;;7.24;100.00
8641;BME280;4358;42.100;25.222;2023-03-01T09:33:25;100838.78;;;7.08;100.00
8641;BME280;4358;42.100;25.222;2023-03-01T09:35:59;100829.03;;;7.10;100.00
8641;BME280;4358;42.100;25.222;2023-03-01T09:38:26;100842.38;;;7.29;100.00
8641;BME280;4358;42.100;25.222;2023-03-01T09:40:53;100834.53;;;7.27;100.00
8641;BME280;4358;42.100;25.222;2023-03-01T09:43:24;100841.19;;;7.37;100.00
8641;BME280;4358;42.100;25.222;2023-03-01T09:46:03;100842.09;;;7.36;100.00
8641;BME280;4358;42.100;25.222;2023-03-01T09:48:37;100831.16;;;7.45;100.00
8641;BME280;4358;42.100;25.222;2023-03-01T09:51:12;100837.69;;;7.58;100.00
8641;BME280;4358;42.100;25.222;2023-03-01T09:53:41;100824.72;;;7.52;100.00
8641;BME280;4358;42.100;25.222;2023-03-01T09:56:13;100832.56;;;7.54;100.00
8641;BME280;4358;42.100;25.222;2023-03-01T09:58:50;100814.94;;;7.54;100.00
8641;BME280;4358;42.100;25.222;2023-03-01T10:01:28;100827.41;;;7.73;100.00
8641;BME280;4358;42.100;25.222;2023-03-01T10:04:09;100818.88;;;7.66;100.00
8641;BME280;4358;42.100;25.222;2023-03-01T10:06:44;100814.63;;;7.62;100.00
8641;BME280;4358;42.100;25.222;2023-03-01T10:09:16;100817.84;;;7.48;100.00
8641;BME280;4358;42.100;25.222;2023-03-01T10:11:45;100815.88;;;7.53;100.00
8641;BME280;4358;42.100;25.222;2023-03-01T10:14:22;100810.31;;;7.59;100.00
8641;BME280;4358;42.100;25.222;2023-03-01T10:16:55;100810.59;;;7.53;100.00
8641;BME280;4358;42.100;25.222;2023-03-01T10:19:28;100811.66;;;7.70;100.00
8641;BME280;4358;42.100;25.222;2023-03-01T10:21:57;100811.81;;;7.66;100.00
8641;BME280;4358;42.100;25.222;2023-03-01T10:24:29;100807.88;;;7.77;100.00
8641;BME280;4358;42.100;25.222;2023-03-01T10:27:01;100803.31;;;7.80;100.00
8641;BME280;4358;42.100;25.222;2023-03-01T10:29:36;100812.66;;;7.89;100.00
8641;BME280;4358;42.100;25.222;2023-03-01T10:32:06;100799.19;;;7.95;100.00
8641;BME280;4358;42.100;25.222;2023-03-01T10:34:33;100803.91;;;7.87;100.00
8641;BME280;4358;42.100;25.222;2023-03-01T10:37:09;100799.84;;;7.80;100.00
8641;BME280;4358;42.100;25.222;2023-03-01T10:39:36;100803.91;;;7.87;100.00
8641;BME280;4358;42.100;25.222;2023-03-01T10:42:05;100801.94;;;7.92;100.00
8641;BME280;4358;42.100;25.222;2023-03-01T10:44:44;100799.97;;;7.97;100.00
8641;BME280;4358;42.100;25.222;2023-03-01T10:47:19;100797.22;;;8.00;100.00
8641;BME280;4358;42.100;25.222;2023-03-01T10:49:58;100803.22;;;8.03;100.00
8641;BME280;4358;42.100;25.222;2023-03-01T10:52:28;100790.25;;;7.97;100.00
8641;BME280;4358;42.100;25.222;2023-03-01T10:54:57;100786.47;;;7.83;100.00
8641;BME280;4358;42.100;25.222;2023-03-01T10:57:32;100788.06;;;7.87;100.00
8641;BME280;4358;42.100;25.222;2023-03-01T11:00:14;100798.25;;;7.96;100.00
8641;BME280;4358;42.100;25.222;2023-03-01T11:02:48;100783.59;;;8.09;100.00
8641;BME280;4358;42.100;25.222;2023-03-01T11:05:21;100780.16;;;8.07;100.00
8641;BME280;4358;42.100;25.222;2023-03-01T11:07:51;100778.31;;;8.09;100.00
8641;BME280;4358;42.100;25.222;2023-03-01T11:10:21;100776.19;;;8.17;100.00
8641;BME280;4358;42.100;25.222;2023-03-01T11:12:50;100772.84;;;8.34;100.00
8641;BME280;4358;42.100;25.222;2023-03-01T11:15:23;100776.56;;;8.28;100.00
8641;BME280;4358;42.100;25.222;2023-03-01T11:17:52;100774.06;;;8.25;100.00
8641;BME280;4358;42.100;25.222;2023-03-01T11:20:24;100762.97;;;8.37;100.00
8641;BME280;4358;42.100;25.222;2023-03-01T11:22:53;100759.84;;;8.48;100.00
8641;BME280;4358;42.100;25.222;2023-03-01T11:25:24;100761.47;;;8.52;100.00
8641;BME280;4358;42.100;25.222;2023-03-01T11:27:51;100750.88;;;8.52;100.00
8641;BME280;4358;42.100;25.222;2023-03-01T11:30:22;100745.84;;;8.46;100.00
8641;BME280;4358;42.100;25.222;2023-03-01T11:33:01;100742.56;;;8.21;100.00
8641;BME280;4358;42.100;25.222;2023-03-01T11:35:29;100740.47;;;8.27;100.00
8641;BME280;4358;42.100;25.222;2023-03-01T11:38:09;100736.63;;;8.36;100.00
8641;BME280;4358;42.100;25.222;2023-03-01T11:40:41;100741.81;;;8.37;100.00
8641;BME280;4358;42.100;25.222;2023-03-01T11:43:16;100738.78;;;8.26;100.00
8641;BME280;4358;42.100;25.222;2023-03-01T11:48:46;100725.94;;;8.37;100.00
8641;BME280;4358;42.100;25.222;2023-03-01T11:51:23;100718.97;;;8.36;100.00
8641;BME280;4358;42.100;25.222;2023-03-01T11:54:02;100709.81;;;8.23;100.00
8641;BME280;4358;42.100;25.222;2023-03-01T11:56:35;100718.00;;;8.37;100.00
8641;BME280;4358;42.100;25.222;2023-03-01T11:59:21;100710.94;;;8.38;100.00
8641;BME280;4358;42.100;25.222;2023-03-01T12:02:12;100715.50;;;8.34;100.00
8641;BME280;4358;42.100;25.222;2023-03-01T12:04:58;100716.53;;;8.50;100.00
8641;BME280;4358;42.100;25.222;2023-03-01T12:07:31;100713.25;;;8.45;100.00
8641;BME280;4358;42.100;25.222;2023-03-01T12:10:20;100716.59;;;8.30;100.00
8641;BME280;4358;42.100;25.222;2023-03-01T12:13:06;100705.78;;;8.35;100.00
8641;BME280;4358;42.100;25.222;2023-03-01T12:15:49;100711.69;;;8.41;100.00
8641;BME280;4358;42.100;25.222;2023-03-01T12:18:46;100708.22;;;8.39;100.00
8641;BME280;4358;42.100;25.222;2023-03-01T12:21:35;100711.25;;;8.50;100.00
8641;BME280;4358;42.100;25.222;2023-03-01T12:24:27;100712.38;;;8.64;100.00
8641;BME280;4358;42.100;25.222;2023-03-01T12:27:09;100716.25;;;8.57;100.00
8641;BME280;4358;42.100;25.222;2023-03-01T12:29:45;100716.81;;;8.44;100.00
8641;BME280;4358;42.100;25.222;2023-03-01T12:32:37;100715.84;;;8.47;100.00
8641;BME280;4358;42.100;25.222;2023-03-01T12:35:33;100712.53;;;8.42;100.00
8641;BME280;4358;42.100;25.222;2023-03-01T12:38:15;100710.88;;;8.39;100.00
8641;BME280;4358;42.100;25.222;2023-03-01T12:41:06;100709.59;;;8.48;100.00
8641;BME280;4358;42.100;25.222;2023-03-01T12:43:47;100705.03;;;8.52;100.00
8641;BME280;4358;42.100;25.222;2023-03-01T12:46:28;100700.09;;;8.44;100.00
8641;BME280;4358;42.100;25.222;2023-03-01T12:49:08;100695.53;;;8.47;100.00
8641;BME280;4358;42.100;25.222;2023-03-01T12:51:37;100691.59;;;8.56;100.00
8641;BME280;4358;42.100;25.222;2023-03-01T12:54:14;100697.59;;;8.60;100.00
8641;BME280;4358;42.100;25.222;2023-03-01T12:56:42;100692.94;;;8.65;100.00
8641;BME280;4358;42.100;25.222;2023-03-01T12:59:20;100698.38;;;8.62;100.00
8641;BME280;4358;42.100;25.222;2023-03-01T13:01:54;100682.50;;;8.62;100.00
8641;BME280;4358;42.100;25.222;2023-03-01T13:04:29;100686.38;;;8.55;100.00
8641;BME280;4358;42.100;25.222;2023-03-01T13:07:14;100687.81;;;8.62;100.00
8641;BME280;4358;42.100;25.222;2023-03-01T13:09:50;100692.28;;;8.60;100.00
8641;BME280;4358;42.100;25.222;2023-03-01T13:12:46;100681.94;;;8.55;100.00
8641;BME280;4358;42.100;25.222;2023-03-01T13:15:27;100681.78;;;8.39;100.00
8641;BME280;4358;42.100;25.222;2023-03-01T13:17:56;100684.84;;;8.30;100.00
8641;BME280;4358;42.100;25.222;2023-03-01T13:20:26;100685.41;;;8.17;100.00